sensor_id;sensor_type;location;lat;lon;timestamp;pressure;altitude;pressure_sealevel;temperature;humidity
21779;BME280;11050;52.222;20.916;2023-02-10T00:01:34;101596.53;;;0.58;69.87
21779;BME280;11050;52.222;20.916;2023-02-10T00:04:01;101596.47;;;0.50;70.34
21779;BME280;11050;52.222;20.916;2023-02-10T00:06:27;101584.25;;;0.46;71.10
21779;BME280;11050;52.222;20.916;2023-02-10T00:08:57;101558.38;;;0.44;71.38
21779;BME280;11050;52.222;20.916;2023-02-10T00:11:25;101566.19;;;0.47;71.00
21779;BME280;11050;52.222;20.916;2023-02-10T00:14:10;101562.47;;;0.48;71.02
21779;BME280;11050;52.222;20.916;2023-02-10T00:16:36;101558.09;;;0.47;71.38
21779;BME280;11050;52.222;20.916;2023-02-10T00:19:03;101555.75;;;0.52;71.33
21779;BME280;11050;52.222;20.916;2023-02-10T00:21:29;101553.66;;;0.46;71.16
21779;BME280;11050;52.222;20.916;2023-02-10T00:23:54;101541.84;;;0.47;71.97
21779;BME280;11050;52.222;20.916;2023-02-10T00:26:20;101546.25;;;0.48;71.35
21779;BME280;11050;52.222;20.916;2023-02-10T00:28:46;101531.72;;;0.49;71.60
21779;BME280;11050;52.222;20.916;2023-02-10T00:31:14;101539.44;;;0.44;71.56
21779;BME280;11050;52.222;20.916;2023-02-10T00:33:44;101541.53;;;0.50;71.64
21779;BME280;11050;52.222;20.916;2023-02-10T00:36:13;101531.03;;;0.47;71.58
21779;BME280;11050;52.222;20.916;2023-02-10T00:38:41;101540.31;;;0.44;71.88
21779;BME280;11050;52.222;20.916;2023-02-10T00:41:13;101550.25;;;0.44;71.71
21779;BME280;11050;52.222;20.916;2023-02-10T00:43:39;101540.41;;;0.35;72.43
21779;BME280;11050;52.222;20.916;2023-02-10T00:46:06;101547.19;;;0.39;72.39
21779;BME280;11050;52.222;20.916;2023-02-10T00:48:33;101532.22;;;0.27;72.82
21779;BME280;11050;52.222;20.916;2023-02-10T00:50:58;101538.03;;;0.32;73.14
21779;BME280;11050;52.222;20.916;2023-02-10T00:53:25;101532.78;;;0.30;72.56
21779;BME280;11050;52.222;20.916;2023-02-10T00:55:50;101526.97;;;0.25;72.93
21779;BME280;11050;52.222;20.916;2023-02-10T00:58:16;101526.28;;;0.23;73.18
21779;BME280;11050;52.222;20.916;2023-02-10T01:00:42;101517.81;;;0.18;73.25
21779;BME280;11050;52.222;20.916;2023-02-10T01:03:08;101528.53;;;0.28;73.25
21779;BME280;11050;52.222;20.916;2023-02-10T01:05:35;101540.44;;;0.17;73.94
21779;BME280;11050;52.222;20.916;2023-02-10T01:08:01;101540.22;;;0.11;74.24
21779;BME280;11050;52.222;20.916;2023-02-10T01:10:27;101536.72;;;0.18;73.25
21779;BME280;11050;52.222;20.916;2023-02-10T01:12:53;101535.59;;;0.21;73.86
21779;BME280;11050;52.222;20.916;2023-02-10T01:15:19;101538.41;;;0.19;73.30
21779;BME280;11050;52.222;20.916;2023-02-10T01:17:45;101529.75;;;0.08;73.70
21779;BME280;11050;52.222;20.916;2023-02-10T01:20:11;101525.47;;;0.05;74.19
21779;BME280;11050;52.222;20.916;2023-02-10T01:22:37;101520.44;;;0.10;73.60
21779;BME280;11050;52.222;20.916;2023-02-10T01:25:03;101524.34;;;0.08;73.94
21779;BME280;11050;52.222;20.916;2023-02-10T01:27:29;101515.38;;;0.07;74.11
21779;BME280;11050;52.222;20.916;2023-02-10T01:29:55;101527.81;;;0.00;74.74
21779;BME280;11050;52.222;20.916;2023-02-10T01:32:20;101515.91;;;0.11;74.32
21779;BME280;11050;52.222;20.916;2023-02-10T01:34:46;101524.00;;;0.11;74.50
21779;BME280;11050;52.222;20.916;2023-02-10T01:37:12;101513.38;;;0.09;74.11
21779;BME280;11050;52.222;20.916;2023-02-10T01:39:37;101516.84;;;0.02;74.62
21779;BME280;11050;52.222;20.916;2023-02-10T01:42:03;101528.03;;;0.07;74.63
21779;BME280;11050;52.222;20.916;2023-02-10T01:46:55;101520.69;;;-0.01;74.56
21779;BME280;11050;52.222;20.916;2023-02-10T01:49:29;101506.03;;;0.02;74.95
21779;BME280;11050;52.222;20.916;2023-02-10T01:52:05;101514.84;;;0.04;74.86
21779;BME280;11050;52.222;20.916;2023-02-10T01:54:40;101504.72;;;-0.12;75.98
21779;BME280;11050;52.222;20.916;2023-02-10T01:57:07;101511.28;;;0.03;74.96
21779;BME280;11050;52.222;20.916;2023-02-10T01:59:36;101515.91;;;-0.07;76.04
21779;BME280;11050;52.222;20.916;2023-02-10T02:02:04;101506.75;;;-0.14;76.47
21779;BME280;11050;52.222;20.916;2023-02-10T02:04:53;101506.50;;;-0.21;76.54
21779;BME280;11050;52.222;20.916;2023-02-10T02:07:24;101503.34;;;-0.16;76.66
21779;BME280;11050;52.222;20.916;2023-02-10T02:09:52;101511.00;;;-0.12;76.44
21779;BME280;11050;52.222;20.916;2023-02-10T02:15:23;101497.31;;;-0.10;76.19
21779;BME280;11050;52.222;20.916;2023-02-10T02:18:11;101497.25;;;-0.18;76.44
21779;BME280;11050;52.222;20.916;2023-02-10T02:27:31;101507.44;;;-0.30;77.76
21779;BME280;11050;52.222;20.916;2023-02-10T02:33:31;101496.63;;;-0.30;78.02
21779;BME280;11050;52.222;20.916;2023-02-10T02:36:08;101512.06;;;-0.22;77.59
21779;BME280;11050;52.222;20.916;2023-02-10T02:38:41;101519.56;;;-0.16;77.02
21779;BME280;11050;52.222;20.916;2023-02-10T02:41:09;101516.47;;;-0.21;77.26
21779;BME280;11050;52.222;20.916;2023-02-10T02:43:36;101513.53;;;-0.28;77.76
21779;BME280;11050;52.222;20.916;2023-02-10T02:47:29;101508.44;;;-0.31;77.98
21779;BME280;11050;52.222;20.916;2023-02-10T02:52:42;101490.69;;;-0.33;78.13
21779;BME280;11050;52.222;20.916;2023-02-10T03:00:48;101524.88;;;-0.07;77.71
21779;BME280;11050;52.222;20.916;2023-02-10T03:03:16;101501.41;;;-0.06;77.55
21779;BME280;11050;52.222;20.916;2023-02-10T03:05:42;101506.34;;;-0.02;77.24
21779;BME280;11050;52.222;20.916;2023-02-10T03:08:07;101510.50;;;0.11;76.40
21779;BME280;11050;52.222;20.916;2023-02-10T03:10:33;101512.81;;;0.06;76.93
21779;BME280;11050;52.222;20.916;2023-02-10T03:12:59;101513.03;;;0.12;76.33
21779;BME280;11050;52.222;20.916;2023-02-10T03:15:25;101515.91;;;0.11;76.40
21779;BME280;11050;52.222;20.916;2023-02-10T03:17:50;101499.16;;;0.07;76.58
21779;BME280;11050;52.222;20.916;2023-02-10T03:20:16;101505.97;;;-0.07;76.41
21779;BME280;11050;52.222;20.916;2023-02-10T03:22:42;101497.78;;;0.03;76.42
21779;BME280;11050;52.222;20.916;2023-02-10T03:25:08;101493.16;;;-0.05;76.68
21779;BME280;11050;52.222;20.916;2023-02-10T03:27:34;101482.06;;;-0.19;77.39
21779;BME280;11050;52.222;20.916;2023-02-10T03:30:00;101490.63;;;-0.24;77.30
21779;BME280;11050;52.222;20.916;2023-02-10T03:32:25;101505.03;;;-0.15;77.87
21779;BME280;11050;52.222;20.916;2023-02-10T03:34:51;101502.47;;;-0.17;77.52
21779;BME280;11050;52.222;20.916;2023-02-10T03:37:17;101502.47;;;-0.17;77.51
21779;BME280;11050;52.222;20.916;2023-02-10T03:39:42;101508.38;;;-0.21;77.71
21779;BME280;11050;52.222;20.916;2023-02-10T03:42:08;101503.66;;;-0.37;78.76
21779;BME280;11050;52.222;20.916;2023-02-10T03:44:35;101486.75;;;-0.39;79.14
21779;BME280;11050;52.222;20.916;2023-02-10T03:47:01;101481.53;;;-0.40;79.01
21779;BME280;11050;52.222;20.916;2023-02-10T03:49:26;101475.81;;;-0.37;79.14
21779;BME280;11050;52.222;20.916;2023-02-10T03:51:52;101497.88;;;-0.42;78.80
21779;BME280;11050;52.222;20.916;2023-02-10T03:54:17;101489.69;;;-0.50;79.22
21779;BME280;11050;52.222;20.916;2023-02-10T03:56:43;101483.22;;;-0.57;80.09
21779;BME280;11050;52.222;20.916;2023-02-10T03:59:09;101490.84;;;-0.52;79.99
21779;BME280;11050;52.222;20.916;2023-02-10T04:01:34;101500.72;;;-0.43;79.30
21779;BME280;11050;52.222;20.916;2023-02-10T04:04:00;101509.84;;;-0.44;79.63
21779;BME280;11050;52.222;20.916;2023-02-10T04:06:26;101492.47;;;-0.42;79.70
21779;BME280;11050;52.222;20.916;2023-02-10T04:08:52;101501.28;;;-0.40;79.07
21779;BME280;11050;52.222;20.916;2023-02-10T04:11:18;101497.88;;;-0.42;79.17
21779;BME280;11050;52.222;20.916;2023-02-10T04:13:45;101502.50;;;-0.52;79.90
21779;BME280;11050;52.222;20.916;2023-02-10T04:16:15;101505.09;;;-0.60;80.33
21779;BME280;11050;52.222;20.916;2023-02-10T04:18:41;101504.66;;;-0.55;79.56
21779;BME280;11050;52.222;20.916;2023-02-10T04:21:10;101503.72;;;-0.46;79.51
21779;BME280;11050;52.222;20.916;2023-02-10T04:23:36;101502.88;;;-0.47;79.40
21779;BME280;11050;52.222;20.916;2023-02-10T04:26:04;101504.44;;;-0.44;79.37
21779;BME280;11050;52.222;20.916;2023-02-10T04:28:30;101511.66;;;-0.45;79.13
21779;BME280;11050;52.222;20.916;2023-02-10T04:30:59;101509.91;;;-0.54;79.53
21779;BME280;11050;52.222;20.916;2023-02-10T04:33:25;101523.72;;;-0.57;79.94
21779;BME280;11050;52.222;20.916;2023-02-10T04:35:53;101520.53;;;-0.52;79.68
21779;BME280;11050;52.222;20.916;2023-02-10T04:38:20;101514.59;;;-0.56;80.07
21779;BME280;11050;52.222;20.916;2023-02-10T04:40:45;101519.31;;;-0.58;79.97
21779;BME280;11050;52.222;20.916;2023-02-10T04:43:12;101515.19;;;-0.62;80.35
21779;BME280;11050;52.222;20.916;2023-02-10T04:45:39;101518.31;;;-0.57;80.62
21779;BME280;11050;52.222;20.916;2023-02-10T04:48:05;101498.78;;;-0.51;80.79
21779;BME280;11050;52.222;20.916;2023-02-10T04:50:32;101501.28;;;-0.40;80.06
21779;BME280;11050;52.222;20.916;2023-02-10T04:52:58;101496.63;;;-0.30;78.90
21779;BME280;11050;52.222;20.916;2023-02-10T04:55:24;101489.31;;;-0.20;78.68
21779;BME280;11050;52.222;20.916;2023-02-10T04:57:49;101493.41;;;-0.16;78.52
21779;BME280;11050;52.222;20.916;2023-02-10T05:00:15;101504.25;;;-0.08;78.79
21779;BME280;11050;52.222;20.916;2023-02-10T05:02:41;101488.09;;;0.00;78.43
21779;BME280;11050;52.222;20.916;2023-02-10T05:05:10;101497.69;;;0.13;77.39
21779;BME280;11050;52.222;20.916;2023-02-10T05:07:37;101483.81;;;0.08;77.47
21779;BME280;11050;52.222;20.916;2023-02-10T05:10:04;101493.03;;;0.23;76.95
21779;BME280;11050;52.222;20.916;2023-02-10T05:12:30;101479.88;;;0.28;76.05
21779;BME280;11050;52.222;20.916;2023-02-10T05:14:55;101483.56;;;0.27;76.23
21779;BME280;11050;52.222;20.916;2023-02-10T05:17:21;101484.59;;;0.26;76.59
21779;BME280;11050;52.222;20.916;2023-02-10T05:19:47;101489.38;;;0.32;75.94
21779;BME280;11050;52.222;20.916;2023-02-10T05:22:13;101497.31;;;0.33;75.96
21779;BME280;11050;52.222;20.916;2023-02-10T05:24:38;101490.34;;;0.31;76.00
21779;BME280;11050;52.222;20.916;2023-02-10T05:27:04;101479.44;;;0.40;75.82
21779;BME280;11050;52.222;20.916;2023-02-10T05:29:30;101483.47;;;0.36;75.84
21779;BME280;11050;52.222;20.916;2023-02-10T05:31:55;101474.88;;;0.41;76.13
21779;BME280;11050;52.222;20.916;2023-02-10T05:34:21;101498.59;;;0.47;76.00
21779;BME280;11050;52.222;20.916;2023-02-10T05:36:47;101498.91;;;0.44;75.54
21779;BME280;11050;52.222;20.916;2023-02-10T05:39:13;101495.38;;;0.43;75.70
21779;BME280;11050;52.222;20.916;2023-02-10T05:41:53;101495.25;;;0.53;75.49
21779;BME280;11050;52.222;20.916;2023-02-10T05:44:20;101497.97;;;0.61;74.96
21779;BME280;11050;52.222;20.916;2023-02-10T05:46:45;101492.38;;;0.54;75.88
21779;BME280;11050;52.222;20.916;2023-02-10T05:49:11;101505.81;;;0.64;75.21
21779;BME280;11050;52.222;20.916;2023-02-10T05:51:37;101497.00;;;0.62;75.68
21779;BME280;11050;52.222;20.916;2023-02-10T05:54:03;101504.94;;;0.63;76.08
21779;BME280;11050;52.222;20.916;2023-02-10T05:56:29;101521.00;;;0.65;75.65
21779;BME280;11050;52.222;20.916;2023-02-10T05:58:55;101515.59;;;0.65;76.46
21779;BME280;11050;52.222;20.916;2023-02-10T06:01:21;101516.97;;;0.69;75.93
21779;BME280;11050;52.222;20.916;2023-02-10T06:03:47;101509.72;;;0.69;76.12
21779;BME280;11050;52.222;20.916;2023-02-10T06:06:12;101503.91;;;0.64;76.38
21779;BME280;11050;52.222;20.916;2023-02-10T06:08:38;101508.16;;;0.67;76.78
21779;BME280;11050;52.222;20.916;2023-02-10T06:11:04;101506.78;;;0.63;77.27
21779;BME280;11050;52.222;20.916;2023-02-10T06:13:30;101505.09;;;0.62;78.30
21779;BME280;11050;52.222;20.916;2023-02-10T06:15:56;101515.94;;;0.62;78.33
21779;BME280;11050;52.222;20.916;2023-02-10T06:18:22;101516.81;;;0.70;78.37
21779;BME280;11050;52.222;20.916;2023-02-10T06:20:48;101509.22;;;0.74;77.67
21779;BME280;11050;52.222;20.916;2023-02-10T06:23:16;101500.91;;;0.67;78.93
21779;BME280;11050;52.222;20.916;2023-02-10T06:25:42;101519.41;;;0.80;78.22
21779;BME280;11050;52.222;20.916;2023-02-10T06:28:08;101517.22;;;0.83;78.92
21779;BME280;11050;52.222;20.916;2023-02-10T06:30:33;101509.63;;;0.87;78.63
21779;BME280;11050;52.222;20.916;2023-02-10T06:32:59;101518.28;;;0.90;79.22
21779;BME280;11050;52.222;20.916;2023-02-10T06:35:25;101516.91;;;0.94;79.01
21779;BME280;11050;52.222;20.916;2023-02-10T06:37:50;101517.31;;;1.00;78.13
21779;BME280;11050;52.222;20.916;2023-02-10T06:40:16;101525.44;;;1.00;78.38
21779;BME280;11050;52.222;20.916;2023-02-10T06:42:42;101523.53;;;0.92;79.40
21779;BME280;11050;52.222;20.916;2023-02-10T06:45:08;101514.34;;;0.85;79.81
21779;BME280;11050;52.222;20.916;2023-02-10T06:47:35;101527.22;;;0.91;80.05
21779;BME280;11050;52.222;20.916;2023-02-10T06:50:02;101516.13;;;1.02;78.66
21779;BME280;11050;52.222;20.916;2023-02-10T06:52:28;101512.31;;;0.79;79.70
21779;BME280;11050;52.222;20.916;2023-02-10T06:54:53;101521.59;;;0.76;80.47
21779;BME280;11050;52.222;20.916;2023-02-10T06:57:19;101525.97;;;0.77;80.70
21779;BME280;11050;52.222;20.916;2023-02-10T06:59:45;101539.72;;;0.84;81.20
21779;BME280;11050;52.222;20.916;2023-02-10T07:02:12;101533.84;;;0.88;81.20
21779;BME280;11050;52.222;20.916;2023-02-10T07:04:38;101532.13;;;0.87;80.85
21779;BME280;11050;52.222;20.916;2023-02-10T07:07:05;101527.41;;;0.89;80.77
21779;BME280;11050;52.222;20.916;2023-02-10T07:09:31;101537.19;;;0.82;81.19
21779;BME280;11050;52.222;20.916;2023-02-10T07:11:58;101540.19;;;0.79;81.63
21779;BME280;11050;52.222;20.916;2023-02-10T07:14:24;101529.00;;;0.74;82.12
21779;BME280;11050;52.222;20.916;2023-02-10T07:16:49;101532.22;;;0.78;82.84
21779;BME280;11050;52.222;20.916;2023-02-10T07:19:15;101535.09;;;0.76;83.38
21779;BME280;11050;52.222;20.916;2023-02-10T07:21:41;101534.59;;;0.73;83.35
21779;BME280;11050;52.222;20.916;2023-02-10T07:24:07;101540.63;;;0.67;84.46
21779;BME280;11050;52.222;20.916;2023-02-10T07:26:32;101537.47;;;0.79;84.21
21779;BME280;11050;52.222;20.916;2023-02-10T07:28:58;101542.25;;;0.85;83.62
21779;BME280;11050;52.222;20.916;2023-02-10T07:31:24;101537.25;;;0.98;84.07
21779;BME280;11050;52.222;20.916;2023-02-10T07:33:49;101554.38;;;1.07;83.59
21779;BME280;11050;52.222;20.916;2023-02-10T07:36:15;101553.59;;;1.23;82.45
21779;BME280;11050;52.222;20.916;2023-02-10T07:38:41;101561.28;;;1.35;82.00
21779;BME280;11050;52.222;20.916;2023-02-10T07:41:07;101540.28;;;1.37;82.05
21779;BME280;11050;52.222;20.916;2023-02-10T07:43:34;101553.56;;;1.64;80.89
21779;BME280;11050;52.222;20.916;2023-02-10T07:45:59;101557.31;;;1.79;79.66
21779;BME280;11050;52.222;20.916;2023-02-10T07:48:26;101549.22;;;1.87;79.67
21779;BME280;11050;52.222;20.916;2023-02-10T07:50:52;101550.22;;;1.94;79.24
21779;BME280;11050;52.222;20.916;2023-02-10T07:53:20;101546.53;;;2.04;79.54
21779;BME280;11050;52.222;20.916;2023-02-10T07:55:45;101556.00;;;2.08;78.85
21779;BME280;11050;52.222;20.916;2023-02-10T07:58:12;101549.75;;;2.07;80.16
21779;BME280;11050;52.222;20.916;2023-02-10T08:00:37;101548.03;;;2.14;80.22
21779;BME280;11050;52.222;20.916;2023-02-10T08:03:03;101561.75;;;2.21;80.00
21779;BME280;11050;52.222;20.916;2023-02-10T08:05:29;101566.16;;;2.38;78.79
21779;BME280;11050;52.222;20.916;2023-02-10T08:07:55;101556.88;;;2.24;79.14
21779;BME280;11050;52.222;20.916;2023-02-10T08:10:21;101550.09;;;2.20;80.14
21779;BME280;11050;52.222;20.916;2023-02-10T08:12:47;101551.09;;;2.27;79.31
21779;BME280;11050;52.222;20.916;2023-02-10T08:15:14;101544.50;;;2.30;79.56
21779;BME280;11050;52.222;20.916;2023-02-10T08:17:43;101537.72;;;2.34;80.35
21779;BME280;11050;52.222;20.916;2023-02-10T08:20:10;101550.56;;;2.40;80.11
21779;BME280;11050;52.222;20.916;2023-02-10T08:22:36;101547.38;;;2.52;79.22
21779;BME280;11050;52.222;20.916;2023-02-10T08:25:02;101545.66;;;2.51;78.53
21779;BME280;11050;52.222;20.916;2023-02-10T08:27:28;101554.81;;;2.50;78.90
21779;BME280;11050;52.222;20.916;2023-02-10T08:29:55;101545.47;;;2.53;79.02
21779;BME280;11050;52.222;20.916;2023-02-10T08:32:21;101550.41;;;2.57;79.30
21779;BME280;11050;52.222;20.916;2023-02-10T08:34:49;101559.03;;;2.53;80.20
21779;BME280;11050;52.222;20.916;2023-02-10T08:37:16;101566.34;;;2.52;79.80
21779;BME280;11050;52.222;20.916;2023-02-10T08:39:43;101549.56;;;2.33;81.10
21779;BME280;11050;52.222;20.916;2023-02-10T08:42:09;101533.63;;;2.38;81.38
21779;BME280;11050;52.222;20.916;2023-02-10T08:44:35;101543.78;;;2.36;80.91
21779;BME280;11050;52.222;20.916;2023-02-10T08:47:02;101538.38;;;2.36;81.85
21779;BME280;11050;52.222;20.916;2023-02-10T08:49:28;101544.97;;;2.57;82.04
21779;BME280;11050;52.222;20.916;2023-02-10T08:51:55;101558.34;;;2.67;80.49
21779;BME280;11050;52.222;20.916;2023-02-10T08:54:21;101560.06;;;2.60;80.93
21779;BME280;11050;52.222;20.916;2023-02-10T08:56:48;101552.78;;;2.44;81.97
21779;BME280;11050;52.222;20.916;2023-02-10T08:59:18;101554.81;;;2.50;82.26
21779;BME280;11050;52.222;20.916;2023-02-10T09:01:44;101563.47;;;2.54;81.85
21779;BME280;11050;52.222;20.916;2023-02-10T09:04:09;101570.94;;;2.60;81.28
21779;BME280;11050;52.222;20.916;2023-02-10T09:06:39;101576.00;;;2.55;82.87
21779;BME280;11050;52.222;20.916;2023-02-10T09:09:12;101578.53;;;2.64;81.97
21779;BME280;11050;52.222;20.916;2023-02-10T09:11:39;101593.31;;;2.62;81.83
21779;BME280;11050;52.222;20.916;2023-02-10T09:14:05;101595.31;;;2.68;82.66
21779;BME280;11050;52.222;20.916;2023-02-10T09:16:31;101607.56;;;2.64;82.76
21779;BME280;11050;52.222;20.916;2023-02-10T09:18:56;101606.69;;;2.71;83.13
21779;BME280;11050;52.222;20.916;2023-02-10T09:21:22;101593.44;;;2.84;82.31
21779;BME280;11050;52.222;20.916;2023-02-10T09:23:50;101600.88;;;2.90;81.62
21779;BME280;11050;52.222;20.916;2023-02-10T09:26:15;101591.91;;;2.90;81.30
21779;BME280;11050;52.222;20.916;2023-02-10T09:28:41;101614.44;;;2.99;81.16
21779;BME280;11050;52.222;20.916;2023-02-10T09:31:09;101602.72;;;2.98;81.95
21779;BME280;11050;52.222;20.916;2023-02-10T09:33:35;101599.34;;;3.04;80.92
21779;BME280;11050;52.222;20.916;2023-02-10T09:36:16;101611.41;;;3.02;80.70
21779;BME280;11050;52.222;20.916;2023-02-10T09:38:42;101614.94;;;3.02;81.56
21779;BME280;11050;52.222;20.916;2023-02-10T09:44:19;101611.59;;;2.92;81.99
21779;BME280;11050;52.222;20.916;2023-02-10T09:50:24;101615.50;;;2.81;83.41
21779;BME280;11050;52.222;20.916;2023-02-10T09:53:09;101611.97;;;2.73;83.92
21779;BME280;11050;52.222;20.916;2023-02-10T09:56:03;101626.16;;;2.83;82.93
21779;BME280;11050;52.222;20.916;2023-02-10T10:01:24;101605.31;;;2.83;84.21
21779;BME280;11050;52.222;20.916;2023-02-10T10:04:16;101611.91;;;2.89;84.59
21779;BME280;11050;52.222;20.916;2023-02-10T10:06:50;101592.59;;;2.92;84.00
21779;BME280;11050;52.222;20.916;2023-02-10T10:09:30;101591.00;;;3.06;84.04
21779;BME280;11050;52.222;20.916;2023-02-10T10:11:59;101582.13;;;3.28;83.55
21779;BME280;11050;52.222;20.916;2023-02-10T10:14:26;101595.16;;;3.40;82.58
21779;BME280;11050;52.222;20.916;2023-02-10T10:19:59;101586.13;;;3.40;82.74
21779;BME280;11050;52.222;20.916;2023-02-10T10:31:18;101586.13;;;3.40;83.44
21779;BME280;11050;52.222;20.916;2023-02-10T10:33:51;101602.06;;;3.51;82.72
21779;BME280;11050;52.222;20.916;2023-02-10T10:36:29;101585.94;;;3.49;83.59
21779;BME280;11050;52.222;20.916;2023-02-10T10:39:03;101589.19;;;3.45;83.26
21779;BME280;11050;52.222;20.916;2023-02-10T10:41:35;101594.63;;;3.45;83.24
21779;BME280;11050;52.222;20.916;2023-02-10T10:44:02;101598.22;;;3.37;83.77
21779;BME280;11050;52.222;20.916;2023-02-10T10:46:38;101598.03;;;3.39;84.66
21779;BME280;11050;52.222;20.916;2023-02-10T10:49:06;101607.38;;;3.36;85.42
21779;BME280;11050;52.222;20.916;2023-02-10T10:51:32;101598.25;;;3.29;84.99
21779;BME280;11050;52.222;20.916;2023-02-10T10:54:01;101603.19;;;3.26;85.12
21779;BME280;11050;52.222;20.916;2023-02-10T10:56:51;101600.66;;;3.24;85.99
21779;BME280;11050;52.222;20.916;2023-02-10T10:59:40;101604.38;;;3.15;87.43
21779;BME280;11050;52.222;20.916;2023-02-10T11:02:20;101628.31;;;3.28;87.05
21779;BME280;11050;52.222;20.916;2023-02-10T11:05:01;101607.59;;;3.19;87.09
21779;BME280;11050;52.222;20.916;2023-02-10T11:07:31;101611.53;;;3.24;88.10
21779;BME280;11050;52.222;20.916;2023-02-10T11:09:59;101605.22;;;3.24;88.15
21779;BME280;11050;52.222;20.916;2023-02-10T11:12:33;101607.06;;;3.31;88.30
21779;BME280;11050;52.222;20.916;2023-02-10T11:15:01;101607.06;;;3.31;88.93
21779;BME280;11050;52.222;20.916;2023-02-10T11:22:36;101607.00;;;3.47;89.27
21779;BME280;11050;52.222;20.916;2023-02-10T11:27:54;101613.38;;;3.62;87.80
21779;BME280;11050;52.222;20.916;2023-02-10T11:32:56;101621.91;;;3.59;89.09
21779;BME280;11050;52.222;20.916;2023-02-10T11:35:24;101607.81;;;3.56;88.71
21779;BME280;11050;52.222;20.916;2023-02-10T11:37:54;101619.97;;;3.68;88.53
21779;BME280;11050;52.222;20.916;2023-02-10T11:40:31;101625.91;;;3.71;88.57
21779;BME280;11050;52.222;20.916;2023-02-10T11:43:14;101620.44;;;3.79;87.77
21779;BME280;11050;52.222;20.916;2023-02-10T11:45:56;101608.81;;;3.94;87.64
21779;BME280;11050;52.222;20.916;2023-02-10T11:48:25;101611.09;;;4.13;87.54
21779;BME280;11050;52.222;20.916;2023-02-10T11:51:15;101612.53;;;4.46;85.96
21779;BME280;11050;52.222;20.916;2023-02-10T11:53:44;101650.81;;;4.67;84.39
21779;BME280;11050;52.222;20.916;2023-02-10T11:56:50;101638.41;;;4.64;83.81
21779;BME280;11050;52.222;20.916;2023-02-10T12:03:03;101654.44;;;4.37;84.65
21779;BME280;11050;52.222;20.916;2023-02-10T12:09:15;101645.22;;;4.15;86.71
21779;BME280;11050;52.222;20.916;2023-02-10T12:12:17;101646.31;;;4.06;86.86
21779;BME280;11050;52.222;20.916;2023-02-10T12:15:28;101637.63;;;4.11;87.98
21779;BME280;11050;52.222;20.916;2023-02-10T12:24:01;101620.38;;;3.96;89.87
21779;BME280;11050;52.222;20.916;2023-02-10T12:26:54;101632.19;;;4.11;90.03
21779;BME280;11050;52.222;20.916;2023-02-10T12:29:50;101646.94;;;4.16;89.80
21779;BME280;11050;52.222;20.916;2023-02-10T12:35:31;101630.13;;;4.13;90.20
21779;BME280;11050;52.222;20.916;2023-02-10T12:51:09;101627.31;;;4.21;89.72
21779;BME280;11050;52.222;20.916;2023-02-10T12:53:41;101629.72;;;4.24;89.98
21779;BME280;11050;52.222;20.916;2023-02-10T12:56:19;101614.28;;;4.16;89.59
21779;BME280;11050;52.222;20.916;2023-02-10T12:58:56;101609.31;;;4.20;89.39
21779;BME280;11050;52.222;20.916;2023-02-10T13:01:33;101612.34;;;4.25;90.41
21779;BME280;11050;52.222;20.916;2023-02-10T13:04:33;101614.28;;;4.16;90.29
21779;BME280;11050;52.222;20.916;2023-02-10T13:07:42;101620.91;;;4.14;91.28
21779;BME280;11050;52.222;20.916;2023-02-10T13:13:13;101636.88;;;4.17;89.59
21779;BME280;11050;52.222;20.916;2023-02-10T13:18:30;101653.31;;;4.01;91.34
21779;BME280;11050;52.222;20.916;2023-02-10T13:21:16;101637.03;;;3.93;92.89
21779;BME280;11050;52.222;20.916;2023-02-10T13:34:56;101639.47;;;3.79;94.19
21779;BME280;11050;52.222;20.916;2023-02-10T13:40:13;101653.06;;;3.79;93.81
21779;BME280;11050;52.222;20.916;2023-02-10T13:42:50;101653.94;;;3.72;94.55
21779;BME280;11050;52.222;20.916;2023-02-10T13:45:25;101651.41;;;3.70;94.94
21779;BME280;11050;52.222;20.916;2023-02-10T13:47:58;101642.59;;;3.68;94.23
21779;BME280;11050;52.222;20.916;2023-02-10T13:50:48;101655.53;;;3.58;96.21
21779;BME280;11050;52.222;20.916;2023-02-10T13:59:22;101651.63;;;3.61;96.46
21779;BME280;11050;52.222;20.916;2023-02-10T14:02:22;101658.22;;;3.66;95.98
21779;BME280;11050;52.222;20.916;2023-02-10T14:04:52;101695.28;;;3.59;96.34
21779;BME280;11050;52.222;20.916;2023-02-10T14:13:04;101686.47;;;3.49;96.80
21779;BME280;11050;52.222;20.916;2023-02-10T14:15:38;101662.56;;;3.45;96.73
21779;BME280;11050;52.222;20.916;2023-02-10T14:18:33;101703.47;;;3.43;97.61
21779;BME280;11050;52.222;20.916;2023-02-10T14:21:11;101687.84;;;3.45;96.95
21779;BME280;11050;52.222;20.916;2023-02-10T14:23:43;101691.78;;;3.43;97.97
21779;BME280;11050;52.222;20.916;2023-02-10T14:26:20;101691.28;;;3.39;98.34
21779;BME280;11050;52.222;20.916;2023-02-10T14:28:51;101683.47;;;3.28;99.01
21779;BME280;11050;52.222;20.916;2023-02-10T14:31:29;101695.00;;;3.30;99.91
21779;BME280;11050;52.222;20.916;2023-02-10T14:34:01;101699.94;;;3.35;99.31
21779;BME280;11050;52.222;20.916;2023-02-10T14:36:28;101708.78;;;3.37;100.00
21779;BME280;11050;52.222;20.916;2023-02-10T14:39:00;101713.16;;;3.38;100.00
21779;BME280;11050;52.222;20.916;2023-02-10T14:41:31;101695.00;;;3.30;100.00
21779;BME280;11050;52.222;20.916;2023-02-10T14:43:58;101712.00;;;3.32;100.00
21779;BME280;11050;52.222;20.916;2023-02-10T14:46:28;101708.94;;;3.35;100.00
21779;BME280;11050;52.222;20.916;2023-02-10T14:49:02;101728.47;;;3.39;100.00
21779;BME280;11050;52.222;20.916;2023-02-10T14:51:30;101710.13;;;3.41;100.00
21779;BME280;11050;52.222;20.916;2023-02-10T14:54:07;101715.38;;;3.34;100.00
21779;BME280;11050;52.222;20.916;2023-02-10T14:56:33;101708.59;;;3.30;100.00
21779;BME280;11050;52.222;20.916;2023-02-10T14:58:58;101713.53;;;3.35;100.00